sensor_id;sensor_type;location;lat;lon;timestamp;temperature;humidity
37342;DHT22;58643;49.052;8.518;2024-02-23T08:01:09;6.70;99.90
37342;DHT22;58643;49.052;8.518;2024-02-23T08:03:35;6.50;99.90
37342;DHT22;58643;49.052;8.518;2024-02-23T08:06:01;6.60;99.90
37342;DHT22;58643;49.052;8.518;2024-02-23T08:08:26;7.00;99.90
37342;DHT22;58643;49.052;8.518;2024-02-23T08:10:53;6.70;99.90
37342;DHT22;58643;49.052;8.518;2024-02-23T08:13:19;6.70;99.90
37342;DHT22;58643;49.052;8.518;2024-02-23T08:15:44;6.70;99.90
37342;DHT22;58643;49.052;8.518;2024-02-23T08:18:10;6.90;99.90
37342;DHT22;58643;49.052;8.518;2024-02-23T08:20:36;7.00;99.90
37342;DHT22;58643;49.052;8.518;2024-02-23T08:23:02;7.00;99.90
37342;DHT22;58643;49.052;8.518;2024-02-23T08:25:27;7.20;99.90
37342;DHT22;58643;49.052;8.518;2024-02-23T08:27:56;7.20;99.90
37342;DHT22;58643;49.052;8.518;2024-02-23T08:30:22;7.60;99.90
37342;DHT22;58643;49.052;8.518;2024-02-23T08:32:48;8.00;99.90
37342;DHT22;58643;49.052;8.518;2024-02-23T08:35:13;8.40;99.90
37342;DHT22;58643;49.052;8.518;2024-02-23T08:37:40;8.60;99.90
37342;DHT22;58643;49.052;8.518;2024-02-23T08:40:08;10.30;99.90
37342;DHT22;58643;49.052;8.518;2024-02-23T08:42:34;9.00;99.90
37342;DHT22;58643;49.052;8.518;2024-02-23T08:44:59;9.00;99.90
37342;DHT22;58643;49.052;8.518;2024-02-23T08:47:25;10.30;99.90
37342;DHT22;58643;49.052;8.518;2024-02-23T08:49:53;10.70;99.90
37342;DHT22;58643;49.052;8.518;2024-02-23T08:52:19;10.70;99.90
37342;DHT22;58643;49.052;8.518;2024-02-23T08:54:44;11.50;99.90
37342;DHT22;58643;49.052;8.518;2024-02-23T08:57:10;11.80;99.50
37342;DHT22;58643;49.052;8.518;2024-02-23T08:59:36;12.70;98.70
37342;DHT22;58643;49.052;8.518;2024-02-23T09:02:02;11.90;98.10
37342;DHT22;58643;49.052;8.518;2024-02-23T09:04:27;14.40;98.10
37342;DHT22;58643;49.052;8.518;2024-02-23T09:06:53;12.90;96.30
37342;DHT22;58643;49.052;8.518;2024-02-23T09:09:19;13.80;94.50
37342;DHT22;58643;49.052;8.518;2024-02-23T09:11:45;13.50;92.80
37342;DHT22;58643;49.052;8.518;2024-02-23T09:14:11;12.60;93.70
37342;DHT22;58643;49.052;8.518;2024-02-23T09:16:36;14.60;94.90
37342;DHT22;58643;49.052;8.518;2024-02-23T09:19:02;12.40;94.90
37342;DHT22;58643;49.052;8.518;2024-02-23T09:21:27;12.50;94.10
37342;DHT22;58643;49.052;8.518;2024-02-23T09:23:53;12.20;94.70
37342;DHT22;58643;49.052;8.518;2024-02-23T09:26:18;13.20;93.90
37342;DHT22;58643;49.052;8.518;2024-02-23T09:28:44;13.80;93.10
37342;DHT22;58643;49.052;8.518;2024-02-23T09:31:10;14.00;93.00
37342;DHT22;58643;49.052;8.518;2024-02-23T09:33:36;12.70;93.60
37342;DHT22;58643;49.052;8.518;2024-02-23T09:36:02;14.20;94.40
37342;DHT22;58643;49.052;8.518;2024-02-23T09:38:28;12.40;93.40
37342;DHT22;58643;49.052;8.518;2024-02-23T09:40:53;14.90;94.30
37342;DHT22;58643;49.052;8.518;2024-02-23T09:43:22;12.70;94.20
37342;DHT22;58643;49.052;8.518;2024-02-23T09:45:52;13.40;94.90
37342;DHT22;58643;49.052;8.518;2024-02-23T09:48:22;12.90;93.60
37342;DHT22;58643;49.052;8.518;2024-02-23T09:50:50;14.10;92.50
37342;DHT22;58643;49.052;8.518;2024-02-23T09:53:16;16.20;92.80
37342;DHT22;58643;49.052;8.518;2024-02-23T09:55:43;12.50;93.40
37342;DHT22;58643;49.052;8.518;2024-02-23T09:58:12;13.70;95.40
37342;DHT22;58643;49.052;8.518;2024-02-23T10:00:39;12.80;96.40
37342;DHT22;58643;49.052;8.518;2024-02-23T10:03:05;12.50;94.90
37342;DHT22;58643;49.052;8.518;2024-02-23T10:05:31;12.70;93.70
37342;DHT22;58643;49.052;8.518;2024-02-23T10:07:58;14.10;94.80
37342;DHT22;58643;49.052;8.518;2024-02-23T10:10:33;13.60;94.80
37342;DHT22;58643;49.052;8.518;2024-02-23T10:12:59;13.30;93.90
37342;DHT22;58643;49.052;8.518;2024-02-23T10:15:25;16.30;92.00
37342;DHT22;58643;49.052;8.518;2024-02-23T10:17:54;14.50;92.20
37342;DHT22;58643;49.052;8.518;2024-02-23T10:20:20;15.30;92.30
37342;DHT22;58643;49.052;8.518;2024-02-23T10:22:45;13.40;92.20
37342;DHT22;58643;49.052;8.518;2024-02-23T10:25:12;12.50;92.80
37342;DHT22;58643;49.052;8.518;2024-02-23T10:27:37;12.80;93.40
37342;DHT22;58643;49.052;8.518;2024-02-23T10:30:03;12.20;94.00
37342;DHT22;58643;49.052;8.518;2024-02-23T10:32:29;12.40;93.90
37342;DHT22;58643;49.052;8.518;2024-02-23T10:35:00;12.00;93.90
37342;DHT22;58643;49.052;8.518;2024-02-23T10:37:25;12.80;93.70
37342;DHT22;58643;49.052;8.518;2024-02-23T10:39:55;14.60;94.50
37342;DHT22;58643;49.052;8.518;2024-02-23T10:42:23;13.70;94.30
37342;DHT22;58643;49.052;8.518;2024-02-23T10:44:51;14.20;94.80
37342;DHT22;58643;49.052;8.518;2024-02-23T10:47:19;14.50;95.80
37342;DHT22;58643;49.052;8.518;2024-02-23T10:49:46;12.90;93.20
37342;DHT22;58643;49.052;8.518;2024-02-23T10:52:12;14.80;94.70
37342;DHT22;58643;49.052;8.518;2024-02-23T10:54:40;12.00;94.70
37342;DHT22;58643;49.052;8.518;2024-02-23T10:57:06;11.50;95.60
37342;DHT22;58643;49.052;8.518;2024-02-23T10:59:32;10.90;96.30
37342;DHT22;58643;49.052;8.518;2024-02-23T11:02:00;10.80;97.00
37342;DHT22;58643;49.052;8.518;2024-02-23T11:04:26;13.50;97.40
37342;DHT22;58643;49.052;8.518;2024-02-23T11:06:54;10.80;97.80
37342;DHT22;58643;49.052;8.518;2024-02-23T11:09:22;11.00;98.20
37342;DHT22;58643;49.052;8.518;2024-02-23T11:11:53;13.50;97.20
37342;DHT22;58643;49.052;8.518;2024-02-23T11:14:29;12.70;97.20
37342;DHT22;58643;49.052;8.518;2024-02-23T11:16:55;13.60;97.80
37342;DHT22;58643;49.052;8.518;2024-02-23T11:19:21;12.00;95.90
37342;DHT22;58643;49.052;8.518;2024-02-23T11:21:58;11.40;97.80
37342;DHT22;58643;49.052;8.518;2024-02-23T11:24:28;10.70;97.60
37342;DHT22;58643;49.052;8.518;2024-02-23T11:26:57;13.00;98.90
37342;DHT22;58643;49.052;8.518;2024-02-23T11:29:34;10.20;98.60
37342;DHT22;58643;49.052;8.518;2024-02-23T11:32:02;10.10;99.90
37342;DHT22;58643;49.052;8.518;2024-02-23T11:34:30;10.50;99.90
37342;DHT22;58643;49.052;8.518;2024-02-23T11:37:09;11.60;99.00
37342;DHT22;58643;49.052;8.518;2024-02-23T11:39:36;12.20;97.50
37342;DHT22;58643;49.052;8.518;2024-02-23T11:42:04;13.40;95.90
37342;DHT22;58643;49.052;8.518;2024-02-23T11:44:29;13.10;95.60
37342;DHT22;58643;49.052;8.518;2024-02-23T11:46:55;11.80;96.50
37342;DHT22;58643;49.052;8.518;2024-02-23T11:49:21;11.00;97.90
37342;DHT22;58643;49.052;8.518;2024-02-23T11:51:53;13.10;99.90
37342;DHT22;58643;49.052;8.518;2024-02-23T11:54:19;10.60;99.90
37342;DHT22;58643;49.052;8.518;2024-02-23T11:56:44;10.60;99.90
37342;DHT22;58643;49.052;8.518;2024-02-23T11:59:10;14.20;99.80
37342;DHT22;58643;49.052;8.518;2024-02-23T12:01:35;13.80;95.30
37342;DHT22;58643;49.052;8.518;2024-02-23T12:04:01;13.90;93.40
37342;DHT22;58643;49.052;8.518;2024-02-23T12:06:27;16.70;93.60
37342;DHT22;58643;49.052;8.518;2024-02-23T12:08:56;13.40;94.30
37342;DHT22;58643;49.052;8.518;2024-02-23T12:11:22;15.30;94.20
37342;DHT22;58643;49.052;8.518;2024-02-23T12:13:47;12.70;94.80
37342;DHT22;58643;49.052;8.518;2024-02-23T12:16:14;12.30;95.50
37342;DHT22;58643;49.052;8.518;2024-02-23T12:18:40;12.50;96.40
37342;DHT22;58643;49.052;8.518;2024-02-23T12:21:07;13.10;94.00
37342;DHT22;58643;49.052;8.518;2024-02-23T12:23:41;12.50;95.20
37342;DHT22;58643;49.052;8.518;2024-02-23T12:26:07;12.10;96.00
37342;DHT22;58643;49.052;8.518;2024-02-23T12:28:33;11.30;97.50
37342;DHT22;58643;49.052;8.518;2024-02-23T12:31:03;11.30;98.30
37342;DHT22;58643;49.052;8.518;2024-02-23T12:33:32;11.10;98.20
37342;DHT22;58643;49.052;8.518;2024-02-23T12:35:58;10.80;98.60
37342;DHT22;58643;49.052;8.518;2024-02-23T12:38:24;12.10;99.40
37342;DHT22;58643;49.052;8.518;2024-02-23T12:40:51;11.00;99.10
37342;DHT22;58643;49.052;8.518;2024-02-23T12:43:17;10.90;98.80
37342;DHT22;58643;49.052;8.518;2024-02-23T12:45:43;10.90;98.50
37342;DHT22;58643;49.052;8.518;2024-02-23T12:48:10;12.70;97.60
37342;DHT22;58643;49.052;8.518;2024-02-23T12:50:36;13.30;94.90
37342;DHT22;58643;49.052;8.518;2024-02-23T12:53:02;12.60;95.70
37342;DHT22;58643;49.052;8.518;2024-02-23T12:55:29;12.20;96.90
37342;DHT22;58643;49.052;8.518;2024-02-23T12:57:54;13.30;96.60
37342;DHT22;58643;49.052;8.518;2024-02-23T13:00:20;12.10;97.80
37342;DHT22;58643;49.052;8.518;2024-02-23T13:02:46;11.10;97.30
37342;DHT22;58643;49.052;8.518;2024-02-23T13:05:11;11.10;97.90
37342;DHT22;58643;49.052;8.518;2024-02-23T13:07:37;11.00;97.70
37342;DHT22;58643;49.052;8.518;2024-02-23T13:10:06;11.20;97.80
37342;DHT22;58643;49.052;8.518;2024-02-23T13:12:32;14.20;99.00
37342;DHT22;58643;49.052;8.518;2024-02-23T13:14:58;10.90;98.60
37342;DHT22;58643;49.052;8.518;2024-02-23T13:17:23;10.90;98.20
37342;DHT22;58643;49.052;8.518;2024-02-23T13:19:49;11.00;98.10
37342;DHT22;58643;49.052;8.518;2024-02-23T13:22:15;11.90;98.50
37342;DHT22;58643;49.052;8.518;2024-02-23T13:24:40;11.30;98.60
37342;DHT22;58643;49.052;8.518;2024-02-23T13:27:06;13.70;99.00
37342;DHT22;58643;49.052;8.518;2024-02-23T13:29:32;13.40;98.90
37342;DHT22;58643;49.052;8.518;2024-02-23T13:31:57;11.10;98.40
37342;DHT22;58643;49.052;8.518;2024-02-23T13:34:23;11.60;97.30
37342;DHT22;58643;49.052;8.518;2024-02-23T13:36:48;14.00;97.90
37342;DHT22;58643;49.052;8.518;2024-02-23T13:39:15;11.90;97.30
37342;DHT22;58643;49.052;8.518;2024-02-23T13:41:41;11.80;97.10
37342;DHT22;58643;49.052;8.518;2024-02-23T13:44:06;11.50;96.40
37342;DHT22;58643;49.052;8.518;2024-02-23T13:46:36;11.40;96.70
37342;DHT22;58643;49.052;8.518;2024-02-23T13:49:07;11.10;96.90
37342;DHT22;58643;49.052;8.518;2024-02-23T13:51:34;11.10;96.60
37342;DHT22;58643;49.052;8.518;2024-02-23T13:54:00;11.20;97.20
37342;DHT22;58643;49.052;8.518;2024-02-23T13:56:26;11.70;97.80
